createdAt,value
2022-11-03T00:01:58.639Z,2.50
2022-11-03T00:04:25.345Z,2.40
2022-11-03T00:06:53.813Z,2.95
2022-11-03T00:09:22.236Z,3.15
2022-11-03T00:11:51.267Z,2.42
2022-11-03T00:14:19.144Z,2.30
2022-11-03T00:16:46.088Z,2.15
2022-11-03T00:19:15.099Z,2.88
2022-11-03T00:21:42.001Z,2.25
2022-11-03T00:24:09.086Z,2.97
2022-11-03T00:26:36.799Z,2.30
2022-11-03T00:29:11.956Z,2.50
2022-11-03T00:31:41.064Z,2.47
2022-11-03T00:34:08.246Z,2.92
2022-11-03T00:36:42.998Z,2.42
2022-11-03T00:39:10.505Z,1.98
2022-11-03T00:41:37.914Z,2.40
2022-11-03T00:44:04.922Z,2.30
2022-11-03T00:46:35.030Z,2.47
2022-11-03T00:49:02.259Z,2.05
2022-11-03T00:51:34.305Z,2.10
2022-11-03T00:54:03.409Z,1.73
2022-11-03T00:56:35.910Z,1.95
2022-11-03T00:59:03.808Z,1.75
2022-11-03T01:01:45.818Z,1.88
2022-11-03T01:04:34.029Z,1.88
2022-11-03T01:07:01.529Z,2.20
2022-11-03T01:09:30.784Z,1.70
2022-11-03T01:12:14.587Z,2.03
2022-11-03T01:14:44.219Z,2.30
2022-11-03T01:17:22.889Z,2.17
2022-11-03T01:19:49.704Z,1.58
2022-11-03T01:22:17.029Z,2.40
2022-11-03T01:24:44.791Z,1.95
2022-11-03T01:27:14.644Z,2.45
2022-11-03T01:29:41.908Z,1.70
2022-11-03T01:32:09.234Z,1.70
2022-11-03T01:34:36.845Z,1.63
2022-11-03T01:37:04.107Z,1.67
2022-11-03T01:39:30.827Z,1.70
2022-11-03T01:41:57.620Z,1.80
2022-11-03T01:44:30.121Z,1.98
2022-11-03T01:47:03.009Z,2.17
2022-11-03T01:49:47.065Z,1.65
2022-11-03T01:52:23.901Z,1.60
2022-11-03T01:55:05.195Z,2.03
2022-11-03T01:57:40.155Z,2.13
2022-11-03T02:00:07.681Z,2.03
2022-11-03T02:02:34.659Z,1.80
2022-11-03T02:05:03.635Z,1.50
2022-11-03T02:07:49.197Z,1.50
2022-11-03T02:10:16.140Z,1.80
2022-11-03T02:12:44.044Z,2.03
2022-11-03T02:15:14.570Z,2.03
2022-11-03T02:17:44.030Z,1.90
2022-11-03T02:20:16.328Z,2.08
2022-11-03T02:22:59.031Z,1.83
2022-11-03T02:25:50.431Z,1.90
2022-11-03T02:28:22.218Z,2.05
2022-11-03T02:30:57.657Z,2.58
2022-11-03T02:33:47.240Z,1.70
2022-11-03T02:36:24.301Z,2.13
2022-11-03T02:39:05.785Z,2.00
2022-11-03T02:41:36.977Z,1.52
2022-11-03T02:44:06.387Z,1.83
2022-11-03T02:46:34.803Z,2.30
2022-11-03T02:49:01.503Z,1.45
2022-11-03T02:51:28.200Z,1.95
2022-11-03T02:54:22.147Z,1.95
2022-11-03T02:57:08.365Z,1.73
2022-11-03T02:59:51.426Z,1.92
2022-11-03T03:02:27.627Z,2.53
2022-11-03T03:04:58.180Z,1.73
2022-11-03T03:07:28.843Z,2.00
2022-11-03T03:10:04.961Z,2.33
2022-11-03T03:12:34.262Z,1.90
2022-11-03T03:15:02.378Z,1.70
2022-11-03T03:18:05.031Z,2.00
2022-11-03T03:20:43.310Z,2.00
2022-11-03T03:23:19.404Z,1.63
2022-11-03T03:25:53.158Z,1.63
2022-11-03T03:28:24.875Z,2.88
2022-11-03T03:30:54.783Z,2.40
2022-11-03T03:33:22.355Z,2.20
2022-11-03T03:35:51.395Z,2.28
2022-11-03T03:38:25.935Z,3.25
2022-11-03T03:40:55.697Z,2.22
2022-11-03T03:43:24.891Z,2.20
2022-11-03T03:45:54.722Z,1.63
2022-11-03T03:48:22.227Z,2.45
2022-11-03T03:50:49.938Z,2.00
2022-11-03T03:53:19.034Z,1.60
2022-11-03T03:55:49.318Z,1.80
2022-11-03T03:58:16.205Z,1.95
2022-11-03T04:00:43.259Z,1.75
2022-11-03T04:03:19.005Z,2.40
2022-11-03T04:05:46.213Z,2.20
2022-11-03T04:08:14.663Z,2.05
2022-11-03T04:10:41.370Z,1.90
2022-11-03T04:13:27.695Z,2.10
2022-11-03T04:16:13.352Z,1.60
2022-11-03T04:18:58.514Z,2.10
2022-11-03T04:21:44.050Z,2.25
2022-11-03T04:24:10.694Z,1.98
2022-11-03T04:26:37.299Z,2.47
2022-11-03T04:29:07.200Z,2.22
2022-11-03T04:31:36.456Z,2.33
2022-11-03T04:34:10.659Z,1.90
2022-11-03T04:36:37.380Z,2.17
2022-11-03T04:39:16.871Z,2.08
2022-11-03T04:41:43.717Z,2.00
2022-11-03T04:44:16.697Z,2.20
2022-11-03T04:46:45.874Z,2.05
2022-11-03T04:49:20.409Z,1.63
2022-11-03T04:51:47.499Z,1.83
2022-11-03T04:54:18.376Z,1.90
2022-11-03T04:56:45.046Z,1.65
2022-11-03T04:59:13.182Z,2.53
2022-11-03T05:01:40.657Z,2.20
2022-11-03T05:04:16.863Z,1.95
2022-11-03T05:06:52.437Z,1.67
2022-11-03T05:09:26.763Z,1.35
2022-11-03T05:11:54.179Z,1.38
2022-11-03T05:14:32.375Z,1.83
2022-11-03T05:17:00.549Z,2.10
2022-11-03T05:19:37.681Z,2.15
2022-11-03T05:22:05.719Z,2.00
2022-11-03T05:24:33.393Z,2.03
2022-11-03T05:27:00.559Z,2.20
2022-11-03T05:29:35.018Z,2.20
2022-11-03T05:32:01.890Z,2.50
2022-11-03T05:34:37.491Z,2.05
2022-11-03T05:37:07.042Z,2.50
2022-11-03T05:39:40.504Z,2.22
2022-11-03T05:42:37.845Z,2.92
2022-11-03T05:45:26.990Z,2.10
2022-11-03T05:47:55.366Z,2.70
2022-11-03T05:50:25.936Z,2.80
2022-11-03T05:53:02.376Z,2.90
2022-11-03T05:55:35.708Z,2.60
2022-11-03T05:58:32.413Z,2.75
2022-11-03T06:01:02.562Z,2.80
2022-11-03T06:03:30.878Z,2.35
2022-11-03T06:05:59.715Z,2.88
2022-11-03T06:08:38.885Z,2.67
2022-11-03T06:11:14.874Z,2.50
2022-11-03T06:13:41.600Z,2.35
2022-11-03T06:16:14.002Z,2.30
2022-11-03T06:18:40.620Z,2.20
2022-11-03T06:21:12.109Z,2.17
2022-11-03T06:23:40.752Z,2.13
2022-11-03T06:26:24.997Z,2.10
2022-11-03T06:28:51.986Z,1.90
2022-11-03T06:31:23.418Z,1.85
2022-11-03T06:33:52.147Z,1.65
2022-11-03T06:36:21.706Z,1.95
2022-11-03T06:38:57.687Z,2.35
2022-11-03T06:41:27.889Z,2.00
2022-11-03T06:43:54.986Z,2.45
2022-11-03T06:46:24.540Z,2.00
2022-11-03T06:48:57.533Z,2.17
2022-11-03T06:51:28.823Z,2.58
2022-11-03T06:53:59.131Z,1.88
2022-11-03T06:56:31.446Z,2.20
2022-11-03T06:58:58.462Z,2.50
2022-11-03T07:01:30.201Z,2.53
2022-11-03T07:04:14.738Z,2.17
2022-11-03T07:06:43.411Z,2.30
2022-11-03T07:09:16.945Z,2.65
2022-11-03T07:11:45.608Z,2.40
2022-11-03T07:14:16.330Z,2.47
2022-11-03T07:16:46.123Z,2.30
2022-11-03T07:19:26.347Z,2.53
2022-11-03T07:22:10.950Z,1.98
2022-11-03T07:24:41.656Z,2.60
2022-11-03T07:27:23.646Z,2.80
2022-11-03T07:29:51.482Z,2.05
2022-11-03T07:32:29.384Z,2.80
2022-11-03T07:35:22.059Z,2.38
2022-11-03T07:37:51.961Z,2.17
2022-11-03T07:40:23.688Z,2.17
2022-11-03T07:42:51.476Z,2.17
2022-11-03T07:45:32.683Z,1.88
2022-11-03T07:48:04.500Z,1.75
2022-11-03T07:50:31.310Z,2.00
2022-11-03T07:52:58.935Z,2.67
2022-11-03T07:55:25.558Z,2.00
2022-11-03T07:57:52.167Z,1.70
2022-11-03T08:00:22.529Z,1.90
2022-11-03T08:02:54.281Z,1.80
2022-11-03T08:05:20.957Z,2.22
2022-11-03T08:07:47.770Z,2.45
2022-11-03T08:10:14.411Z,1.63
2022-11-03T08:12:41.149Z,1.50
2022-11-03T08:15:08.178Z,1.77
2022-11-03T08:17:34.801Z,2.05
2022-11-03T08:20:01.420Z,2.38
2022-11-03T08:22:28.112Z,2.10
2022-11-03T08:24:54.750Z,2.28
2022-11-03T08:27:21.409Z,1.50
2022-11-03T08:29:48.107Z,2.22
2022-11-03T08:32:14.723Z,2.50
2022-11-03T08:34:41.338Z,2.35
2022-11-03T08:37:08.063Z,1.73
2022-11-03T08:39:36.086Z,1.83
2022-11-03T08:42:02.813Z,1.63
2022-11-03T08:44:29.456Z,1.88
2022-11-03T08:46:56.147Z,2.20
2022-11-03T08:49:22.827Z,1.85
2022-11-03T08:51:49.438Z,1.92
2022-11-03T08:54:16.092Z,2.35
2022-11-03T08:56:43.793Z,1.73
2022-11-03T08:59:10.383Z,1.67
2022-11-03T09:01:37.036Z,2.20
2022-11-03T09:04:03.913Z,1.85
2022-11-03T09:06:30.674Z,1.85
2022-11-03T09:11:43.931Z,1.83
2022-11-03T09:14:10.646Z,1.60
2022-11-03T09:16:37.276Z,1.75
2022-11-03T09:19:03.870Z,1.67
2022-11-03T09:21:30.581Z,1.40
2022-11-03T09:23:59.403Z,2.15
2022-11-03T09:26:26.812Z,1.88
2022-11-03T09:28:53.598Z,1.80
2022-11-03T09:31:20.242Z,1.52
2022-11-03T09:33:47.038Z,1.50
2022-11-03T09:36:13.719Z,1.60
2022-11-03T09:38:40.373Z,2.20
2022-11-03T09:41:18.567Z,1.98
2022-11-03T09:43:54.442Z,2.42
2022-11-03T09:46:21.130Z,3.17
2022-11-03T09:48:47.842Z,1.85
2022-11-03T09:51:19.275Z,2.38
2022-11-03T09:53:46.093Z,3.25
2022-11-03T09:56:12.792Z,1.70
2022-11-03T09:58:40.769Z,2.85
2022-11-03T10:01:10.933Z,2.17
2022-11-03T10:03:39.170Z,1.75
2022-11-03T10:06:07.637Z,1.80
2022-11-03T10:08:39.079Z,3.97
2022-11-03T10:11:09.164Z,1.90
2022-11-03T10:13:42.270Z,5.68
2022-11-03T10:16:12.018Z,2.25
2022-11-03T10:18:38.753Z,1.60
2022-11-03T10:21:12.912Z,1.77
2022-11-03T10:23:39.553Z,1.60
2022-11-03T10:26:24.392Z,1.67
2022-11-03T10:29:05.575Z,2.30
2022-11-03T10:31:37.318Z,1.60
2022-11-03T10:34:04.916Z,1.80
2022-11-03T10:36:33.729Z,2.28
2022-11-03T10:39:33.256Z,1.73
2022-11-03T10:42:00.449Z,2.13
2022-11-03T10:44:28.771Z,1.90
2022-11-03T10:46:58.651Z,1.90
2022-11-03T10:49:27.035Z,1.60
2022-11-03T10:51:58.117Z,1.38
2022-11-03T10:54:25.215Z,1.40
2022-11-03T10:56:53.072Z,1.55
2022-11-03T10:59:31.799Z,1.80
2022-11-03T11:01:59.951Z,1.85
2022-11-03T11:04:27.077Z,2.05
2022-11-03T11:06:53.871Z,2.13
2022-11-03T11:09:26.963Z,1.77
2022-11-03T11:12:06.950Z,1.67
2022-11-03T11:14:39.189Z,1.50
2022-11-03T11:17:26.674Z,1.92
2022-11-03T11:20:24.668Z,1.70
2022-11-03T11:22:51.700Z,1.80
2022-11-03T11:25:19.374Z,2.22
2022-11-03T11:27:46.619Z,1.63
2022-11-03T11:30:19.800Z,1.50
2022-11-03T11:32:46.643Z,2.00
2022-11-03T11:35:16.764Z,1.60
2022-11-03T11:37:44.005Z,1.48
2022-11-03T11:40:15.170Z,1.85
2022-11-03T11:43:02.500Z,1.58
2022-11-03T11:46:07.211Z,1.60
2022-11-03T11:48:34.688Z,1.52
2022-11-03T11:51:46.604Z,1.70
2022-11-03T11:54:20.817Z,1.48
2022-11-03T11:56:49.687Z,1.33
2022-11-03T11:59:25.208Z,1.25
2022-11-03T12:01:55.346Z,1.65
2022-11-03T12:04:31.238Z,3.03
2022-11-03T12:06:58.385Z,1.95
2022-11-03T12:09:30.139Z,1.90
2022-11-03T12:12:06.869Z,1.50
2022-11-03T12:14:36.957Z,1.83
2022-11-03T12:17:19.031Z,2.28
2022-11-03T12:19:50.095Z,2.60
2022-11-03T12:22:29.375Z,4.00
2022-11-03T12:24:59.087Z,5.05
2022-11-03T12:27:25.752Z,4.93
2022-11-03T12:30:00.045Z,3.13
2022-11-03T12:32:34.574Z,2.63
2022-11-03T12:35:10.211Z,2.13
2022-11-03T12:37:37.443Z,1.90
2022-11-03T12:40:04.906Z,1.40
2022-11-03T12:42:32.038Z,1.70
2022-11-03T12:44:58.672Z,1.58
2022-11-03T12:47:25.398Z,1.38
2022-11-03T12:49:52.096Z,1.30
2022-11-03T12:52:19.559Z,1.67
2022-11-03T12:54:47.755Z,1.58
2022-11-03T12:57:14.577Z,1.52
2022-11-03T12:59:41.307Z,1.60
2022-11-03T13:02:10.767Z,1.50
2022-11-03T13:04:38.211Z,1.70
2022-11-03T13:07:04.995Z,1.52
2022-11-03T13:09:31.902Z,1.42
2022-11-03T13:12:16.983Z,1.20
2022-11-03T13:14:46.170Z,1.40
2022-11-03T13:17:15.216Z,2.00
2022-11-03T13:19:41.835Z,1.52
2022-11-03T13:22:08.527Z,1.38
2022-11-03T13:24:35.251Z,1.30
2022-11-03T13:27:02.642Z,1.88
2022-11-03T13:30:47.700Z,1.83
2022-11-03T13:33:41.732Z,1.50
2022-11-03T13:36:08.727Z,1.48
2022-11-03T13:38:35.392Z,1.38
2022-11-03T13:41:24.795Z,1.70
2022-11-03T13:43:51.487Z,1.70
2022-11-03T13:51:48.456Z,1.80
2022-11-03T13:59:46.545Z,1.77
2022-11-03T14:05:08.777Z,1.42
2022-11-03T14:07:38.000Z,1.88
2022-11-03T14:10:05.000Z,1.80
2022-11-03T14:12:31.660Z,1.73
2022-11-03T14:14:59.741Z,1.65
2022-11-03T14:17:26.560Z,1.73
2022-11-03T14:19:57.902Z,1.40
2022-11-03T14:22:33.187Z,1.45
2022-11-03T14:25:01.348Z,1.73
2022-11-03T14:27:28.594Z,1.40
2022-11-03T14:29:55.326Z,1.30
2022-11-03T14:32:22.248Z,1.83
2022-11-03T14:56:37.314Z,1.65
2022-11-03T14:59:33.926Z,1.38
2022-11-03T15:02:00.835Z,2.42
2022-11-03T15:04:28.246Z,1.98
2022-11-03T15:06:54.891Z,1.50
2022-11-03T15:09:21.683Z,2.13
2022-11-03T15:11:48.406Z,1.83
2022-11-03T15:14:15.065Z,1.80
2022-11-03T15:16:41.955Z,2.33
2022-11-03T15:19:08.921Z,3.10
2022-11-03T15:21:36.554Z,2.63
2022-11-03T15:26:50.806Z,2.15
2022-11-03T15:29:17.490Z,1.92
2022-11-03T15:31:47.945Z,2.38
2022-11-03T15:34:21.522Z,2.03
2022-11-03T15:36:51.276Z,2.22
2022-11-03T15:39:21.281Z,1.75
2022-11-03T15:42:15.342Z,2.20
2022-11-03T15:44:42.968Z,2.70
2022-11-03T15:47:11.653Z,1.90
2022-11-03T15:49:38.837Z,1.70
2022-11-03T15:52:05.592Z,1.73
2022-11-03T15:54:32.373Z,2.00
2022-11-03T15:57:02.249Z,2.22
2022-11-03T15:59:28.816Z,2.05
2022-11-03T16:02:03.660Z,2.00
2022-11-03T16:04:40.515Z,1.67
2022-11-03T16:07:08.595Z,2.20
2022-11-03T16:09:35.591Z,1.85
2022-11-03T16:12:02.884Z,2.25
2022-11-03T16:14:30.440Z,2.20
2022-11-03T16:16:57.628Z,2.03
2022-11-03T16:19:24.254Z,1.70
2022-11-03T16:21:51.648Z,2.00
2022-11-03T16:24:18.469Z,2.65
2022-11-03T16:26:45.628Z,2.85
2022-11-03T16:29:12.316Z,2.10
2022-11-03T16:31:38.914Z,2.25
2022-11-03T16:34:06.198Z,2.20
2022-11-03T16:36:33.023Z,1.88
2022-11-03T16:39:02.739Z,2.30
2022-11-03T16:41:29.382Z,2.15
2022-11-03T16:43:56.848Z,2.20
2022-11-03T16:46:23.464Z,1.90
2022-11-03T16:48:50.168Z,2.92
2022-11-03T16:51:24.817Z,2.63
2022-11-03T16:53:54.502Z,2.45
2022-11-03T16:56:21.662Z,2.15
2022-11-03T16:58:48.253Z,2.55
2022-11-03T17:01:14.857Z,2.13
2022-11-03T17:03:41.459Z,2.42
2022-11-03T17:06:08.111Z,2.60
2022-11-03T17:11:35.928Z,2.10
2022-11-03T17:14:08.695Z,2.20
2022-11-03T17:16:35.550Z,2.60
2022-11-03T17:19:02.284Z,2.55
2022-11-03T17:21:28.877Z,2.47
2022-11-03T17:23:55.511Z,2.72
2022-11-03T17:26:30.895Z,2.42
2022-11-03T17:28:57.603Z,2.42
2022-11-03T17:31:24.913Z,2.75
2022-11-03T17:33:51.967Z,2.33
2022-11-03T17:36:18.587Z,2.33
2022-11-03T17:38:45.251Z,2.83
2022-11-03T17:41:14.970Z,2.63
2022-11-03T17:43:44.683Z,2.63
2022-11-03T17:46:11.241Z,2.85
2022-11-03T17:48:39.110Z,2.75
2022-11-03T17:51:11.787Z,2.90
2022-11-03T17:53:41.483Z,2.42
2022-11-03T17:56:29.464Z,3.13
2022-11-03T17:58:56.558Z,2.70
2022-11-03T18:01:25.629Z,3.13
2022-11-03T18:03:52.535Z,2.88
2022-11-03T18:06:20.478Z,3.28
2022-11-03T18:08:48.099Z,2.70
2022-11-03T18:11:38.976Z,2.55
2022-11-03T18:14:05.650Z,2.72
2022-11-03T18:16:32.441Z,2.90
2022-11-03T18:18:59.282Z,2.65
2022-11-03T18:21:28.782Z,3.00
2022-11-03T18:23:56.165Z,2.53
2022-11-03T18:26:25.641Z,2.72
2022-11-03T18:28:54.036Z,2.35
2022-11-03T18:31:34.060Z,2.75
2022-11-03T18:34:05.330Z,2.70
2022-11-03T18:36:34.270Z,3.15
2022-11-03T18:39:35.883Z,2.80
2022-11-03T18:42:18.798Z,2.60
2022-11-03T18:44:47.907Z,2.67
2022-11-03T18:47:14.823Z,3.85
2022-11-03T18:49:41.667Z,3.10
2022-11-03T18:52:16.094Z,2.75
2022-11-03T18:54:50.410Z,2.50
2022-11-03T19:00:20.648Z,3.20
2022-11-03T19:02:47.795Z,2.80
2022-11-03T19:05:18.632Z,2.75
2022-11-03T19:07:49.262Z,3.05
2022-11-03T19:10:22.376Z,3.10
2022-11-03T19:12:49.230Z,2.45
2022-11-03T19:15:22.820Z,3.13
2022-11-03T19:17:57.833Z,2.90
2022-11-03T19:20:25.564Z,3.42
2022-11-03T19:22:52.847Z,3.13
2022-11-03T19:25:19.797Z,3.80
2022-11-03T19:27:48.268Z,2.65
2022-11-03T19:30:19.636Z,3.00
2022-11-03T19:32:49.733Z,2.83
2022-11-03T19:35:33.401Z,2.75
2022-11-03T19:38:07.432Z,2.60
2022-11-03T19:40:35.027Z,2.47
2022-11-03T19:43:03.765Z,2.67
2022-11-03T19:45:31.877Z,2.95
2022-11-03T19:48:23.253Z,2.67
2022-11-03T19:50:49.722Z,3.10
2022-11-03T19:53:23.340Z,2.60
2022-11-03T19:55:50.308Z,3.00
2022-11-03T19:58:29.195Z,2.72
2022-11-03T20:00:56.590Z,2.92
2022-11-03T20:03:24.483Z,2.92
2022-11-03T20:05:57.005Z,3.20
2022-11-03T20:08:27.972Z,2.80
2022-11-03T20:10:57.401Z,2.90
2022-11-03T20:13:29.856Z,2.75
2022-11-03T20:16:01.017Z,2.70
2022-11-03T20:18:28.637Z,3.30
2022-11-03T20:20:59.566Z,4.03
2022-11-03T20:23:29.409Z,3.92
2022-11-03T20:25:56.723Z,2.95
2022-11-03T20:28:26.215Z,4.03
2022-11-03T20:30:53.896Z,2.92
2022-11-03T20:33:27.426Z,3.03
2022-11-03T20:35:55.086Z,2.92
2022-11-03T20:38:24.914Z,3.00
2022-11-03T20:41:06.187Z,2.60
2022-11-03T20:47:00.203Z,2.95
2022-11-03T20:49:27.252Z,3.20
2022-11-03T20:51:54.585Z,3.97
2022-11-03T20:54:21.846Z,3.45
2022-11-03T20:56:48.824Z,3.17
2022-11-03T20:59:24.674Z,2.72
2022-11-03T21:01:52.694Z,3.15
2022-11-03T21:04:21.191Z,3.33
2022-11-03T21:06:47.977Z,2.95
2022-11-03T21:09:17.866Z,3.08
2022-11-03T21:11:45.607Z,2.90
2022-11-03T21:14:15.115Z,2.85
2022-11-03T21:17:00.591Z,3.15
2022-11-03T21:19:49.350Z,3.10
2022-11-03T21:22:45.936Z,2.90
2022-11-03T21:25:06.486Z,3.22
2022-11-03T21:27:33.864Z,2.92
2022-11-03T21:30:01.469Z,3.40
2022-11-03T21:32:28.813Z,3.65
2022-11-03T21:34:55.436Z,3.60
2022-11-03T21:37:22.002Z,3.20
2022-11-03T21:39:48.707Z,3.00
2022-11-03T21:42:34.946Z,3.47
2022-11-03T21:45:01.609Z,2.92
2022-11-03T21:47:28.514Z,3.60
2022-11-03T21:49:55.185Z,3.55
2022-11-03T21:52:31.875Z,4.00
2022-11-03T21:54:59.912Z,3.83
2022-11-03T21:57:26.646Z,3.08
2022-11-03T21:59:53.304Z,3.53
2022-11-03T22:02:20.098Z,6.07
2022-11-03T22:04:46.737Z,5.00
2022-11-03T22:07:13.438Z,3.83
2022-11-03T22:09:39.981Z,3.92
2022-11-03T22:12:06.911Z,3.72
2022-11-03T22:14:52.086Z,7.55
2022-11-03T22:17:18.726Z,4.00
2022-11-03T22:20:04.062Z,3.55
2022-11-03T22:22:49.313Z,3.50
2022-11-03T22:25:34.846Z,3.72
2022-11-03T22:28:04.090Z,3.53
2022-11-03T22:30:49.331Z,4.18
2022-11-03T22:33:18.492Z,3.60
2022-11-03T22:36:03.791Z,3.70
2022-11-03T22:38:49.256Z,3.75
2022-11-03T22:41:34.614Z,3.80
2022-11-03T22:44:20.086Z,4.10
2022-11-03T22:46:46.803Z,3.60
2022-11-03T22:49:13.615Z,4.00
2022-11-03T22:51:40.221Z,3.75
2022-11-03T22:54:12.785Z,4.30
2022-11-03T22:56:40.118Z,4.57
2022-11-03T22:59:07.538Z,4.88
2022-11-03T23:01:35.235Z,4.40
2022-11-03T23:04:02.338Z,5.82
2022-11-03T23:06:38.132Z,4.15
2022-11-03T23:09:05.235Z,4.70
2022-11-03T23:11:33.262Z,4.88
2022-11-03T23:14:00.749Z,4.63
2022-11-03T23:16:38.456Z,4.47
2022-11-03T23:19:24.688Z,4.95
2022-11-03T23:21:52.822Z,4.43
2022-11-03T23:24:42.257Z,4.60
2022-11-03T23:27:12.165Z,5.15
2022-11-03T23:29:39.412Z,4.72
2022-11-03T23:32:06.313Z,4.63
2022-11-03T23:34:35.012Z,4.70
2022-11-03T23:37:02.363Z,4.38
2022-11-03T23:39:29.046Z,4.75
2022-11-03T23:41:55.659Z,5.18
2022-11-03T23:44:22.399Z,4.90
2022-11-03T23:47:07.503Z,4.55
2022-11-03T23:49:34.131Z,4.30
2022-11-03T23:52:00.802Z,4.55
2022-11-03T23:54:27.610Z,3.80
2022-11-03T23:57:13.212Z,4.53
2022-11-03T23:59:39.900Z,4.40
